sensor_id;sensor_type;location;lat;lon;timestamp;pressure;altitude;pressure_sealevel;temperature;humidity
50592;BME280;36548;50.506;30.834;2023-03-04T00:01:01;99434.58;;;3.04;62.73
50592;BME280;36548;50.506;30.834;2023-03-04T00:02:12;99433.66;;;3.05;63.13
50592;BME280;36548;50.506;30.834;2023-03-04T00:03:21;99426.84;;;2.99;63.08
50592;BME280;36548;50.506;30.834;2023-03-04T00:04:30;99429.34;;;3.02;63.32
50592;BME280;36548;50.506;30.834;2023-03-04T00:05:40;99422.90;;;3.08;63.58
50592;BME280;36548;50.506;30.834;2023-03-04T00:06:48;99426.43;;;3.09;63.27
50592;BME280;36548;50.506;30.834;2023-03-04T00:07:57;99424.40;;;3.14;63.30
50592;BME280;36548;50.506;30.834;2023-03-04T00:09:07;99426.43;;;3.09;62.93
50592;BME280;36548;50.506;30.834;2023-03-04T00:10:17;99422.39;;;3.00;62.98
50592;BME280;36548;50.506;30.834;2023-03-04T00:11:26;99419.81;;;2.98;63.52
50592;BME280;36548;50.506;30.834;2023-03-04T00:12:34;99413.89;;;2.93;63.55
50592;BME280;36548;50.506;30.834;2023-03-04T00:13:44;99421.77;;;2.95;63.74
50592;BME280;36548;50.506;30.834;2023-03-04T00:14:53;99420.45;;;2.84;63.93
50592;BME280;36548;50.506;30.834;2023-03-04T00:16:01;99410.66;;;2.86;64.09
50592;BME280;36548;50.506;30.834;2023-03-04T00:17:11;99416.89;;;2.85;64.18
50592;BME280;36548;50.506;30.834;2023-03-04T00:18:20;99413.58;;;2.80;63.99
50592;BME280;36548;50.506;30.834;2023-03-04T00:19:30;99413.50;;;2.82;64.34
50592;BME280;36548;50.506;30.834;2023-03-04T00:20:39;99409.42;;;2.75;64.45
50592;BME280;36548;50.506;30.834;2023-03-04T00:21:52;99409.27;;;2.59;65.07
50592;BME280;36548;50.506;30.834;2023-03-04T00:23:01;99409.86;;;2.65;65.18
50592;BME280;36548;50.506;30.834;2023-03-04T00:24:11;99399.05;;;2.70;65.23
50592;BME280;36548;50.506;30.834;2023-03-04T00:25:25;99397.41;;;2.86;65.19
50592;BME280;36548;50.506;30.834;2023-03-04T00:26:35;99392.16;;;2.66;64.90
50592;BME280;36548;50.506;30.834;2023-03-04T00:27:43;99399.45;;;2.61;65.30
50592;BME280;36548;50.506;30.834;2023-03-04T00:28:53;99385.20;;;2.63;65.52
50592;BME280;36548;50.506;30.834;2023-03-04T00:30:05;99384.28;;;2.64;65.50
50592;BME280;36548;50.506;30.834;2023-03-04T00:31:16;99380.64;;;2.67;65.27
50592;BME280;36548;50.506;30.834;2023-03-04T00:32:27;99381.64;;;2.64;65.60
50592;BME280;36548;50.506;30.834;2023-03-04T00:33:36;99385.43;;;2.59;65.48
50592;BME280;36548;50.506;30.834;2023-03-04T00:34:45;99386.50;;;2.54;65.60
50592;BME280;36548;50.506;30.834;2023-03-04T00:35:56;99388.16;;;2.57;65.78
50592;BME280;36548;50.506;30.834;2023-03-04T00:37:06;99384.70;;;2.55;65.74
50592;BME280;36548;50.506;30.834;2023-03-04T00:38:16;99379.47;;;2.53;65.83
50592;BME280;36548;50.506;30.834;2023-03-04T00:39:27;99382.97;;;2.54;65.79
50592;BME280;36548;50.506;30.834;2023-03-04T00:40:42;99382.93;;;2.55;65.96
50592;BME280;36548;50.506;30.834;2023-03-04T00:41:52;99388.48;;;2.49;66.07
50592;BME280;36548;50.506;30.834;2023-03-04T00:43:01;99385.13;;;2.46;66.09
50592;BME280;36548;50.506;30.834;2023-03-04T00:44:10;99391.36;;;2.45;66.29
50592;BME280;36548;50.506;30.834;2023-03-04T00:45:19;99382.34;;;2.49;66.31
50592;BME280;36548;50.506;30.834;2023-03-04T00:46:29;99382.27;;;2.50;66.23
50592;BME280;36548;50.506;30.834;2023-03-04T00:47:44;99378.98;;;2.64;66.22
50592;BME280;36548;50.506;30.834;2023-03-04T00:48:52;99387.27;;;2.56;66.06
50592;BME280;36548;50.506;30.834;2023-03-04T00:50:02;99384.70;;;2.55;65.69
50592;BME280;36548;50.506;30.834;2023-03-04T00:51:11;99382.93;;;2.55;65.82
50592;BME280;36548;50.506;30.834;2023-03-04T00:52:21;99381.90;;;2.58;65.95
50592;BME280;36548;50.506;30.834;2023-03-04T00:53:29;99380.06;;;2.60;65.85
50592;BME280;36548;50.506;30.834;2023-03-04T00:54:39;99384.51;;;2.60;65.87
50592;BME280;36548;50.506;30.834;2023-03-04T00:55:47;99381.86;;;2.60;65.72
50592;BME280;36548;50.506;30.834;2023-03-04T00:56:56;99387.27;;;2.56;65.82
50592;BME280;36548;50.506;30.834;2023-03-04T00:58:06;99382.63;;;2.62;65.94
50592;BME280;36548;50.506;30.834;2023-03-04T00:59:14;99384.28;;;2.64;65.81
50592;BME280;36548;50.506;30.834;2023-03-04T01:00:25;99379.91;;;2.63;65.54
50592;BME280;36548;50.506;30.834;2023-03-04T01:01:34;99384.28;;;2.64;65.59
50592;BME280;36548;50.506;30.834;2023-03-04T01:02:43;99382.48;;;2.65;65.55
50592;BME280;36548;50.506;30.834;2023-03-04T01:03:52;99385.79;;;2.70;65.78
50592;BME280;36548;50.506;30.834;2023-03-04T01:05:01;99381.41;;;2.69;65.21
50592;BME280;36548;50.506;30.834;2023-03-04T01:06:12;99381.41;;;2.69;65.24
50592;BME280;36548;50.506;30.834;2023-03-04T01:07:21;99369.16;;;2.66;65.07
50592;BME280;36548;50.506;30.834;2023-03-04T01:08:30;99380.72;;;2.65;65.26
50592;BME280;36548;50.506;30.834;2023-03-04T01:09:39;99376.27;;;2.66;65.40
50592;BME280;36548;50.506;30.834;2023-03-04T01:10:49;99375.34;;;2.67;65.36
50592;BME280;36548;50.506;30.834;2023-03-04T01:11:59;99379.64;;;2.69;65.45
50592;BME280;36548;50.506;30.834;2023-03-04T01:13:07;99376.04;;;2.70;65.06
50592;BME280;36548;50.506;30.834;2023-03-04T01:14:17;99376.99;;;2.69;65.08
50592;BME280;36548;50.506;30.834;2023-03-04T01:15:27;99371.70;;;2.69;65.21
50592;BME280;36548;50.506;30.834;2023-03-04T01:16:36;99362.02;;;2.68;64.86
50592;BME280;36548;50.506;30.834;2023-03-04T01:17:45;99370.96;;;2.66;64.95
50592;BME280;36548;50.506;30.834;2023-03-04T01:18:57;99368.46;;;2.63;64.98
50592;BME280;36548;50.506;30.834;2023-03-04T01:20:09;99362.94;;;2.67;65.36
50592;BME280;36548;50.506;30.834;2023-03-04T01:21:18;99360.36;;;2.66;64.83
50592;BME280;36548;50.506;30.834;2023-03-04T01:22:34;99353.69;;;2.76;64.96
50592;BME280;36548;50.506;30.834;2023-03-04T01:23:43;99358.64;;;2.65;65.07
50592;BME280;36548;50.506;30.834;2023-03-04T01:24:53;99367.58;;;2.62;64.97
50592;BME280;36548;50.506;30.834;2023-03-04T01:26:02;99362.50;;;2.58;65.23
50592;BME280;36548;50.506;30.834;2023-03-04T01:27:11;99354.48;;;2.59;65.44
50592;BME280;36548;50.506;30.834;2023-03-04T01:28:22;99358.02;;;2.60;65.42
50592;BME280;36548;50.506;30.834;2023-03-04T01:29:30;99355.70;;;2.52;65.18
50592;BME280;36548;50.506;30.834;2023-03-04T01:30:40;99351.55;;;2.46;65.41
50592;BME280;36548;50.506;30.834;2023-03-04T01:31:49;99353.13;;;2.50;65.65
50592;BME280;36548;50.506;30.834;2023-03-04T01:33:01;99345.87;;;2.54;65.67
50592;BME280;36548;50.506;30.834;2023-03-04T01:34:09;99345.18;;;2.50;65.49
50592;BME280;36548;50.506;30.834;2023-03-04T01:35:19;99344.38;;;2.48;65.53
50592;BME280;36548;50.506;30.834;2023-03-04T01:36:28;99348.97;;;2.45;65.63
50592;BME280;36548;50.506;30.834;2023-03-04T01:37:37;99339.22;;;2.45;65.90
50592;BME280;36548;50.506;30.834;2023-03-04T01:38:47;99338.30;;;2.46;65.87
50592;BME280;36548;50.506;30.834;2023-03-04T01:40:02;99340.39;;;2.59;65.85
50592;BME280;36548;50.506;30.834;2023-03-04T01:41:14;99342.67;;;2.47;65.56
50592;BME280;36548;50.506;30.834;2023-03-04T01:42:28;99340.10;;;2.46;65.57
50592;BME280;36548;50.506;30.834;2023-03-04T01:43:38;99337.23;;;2.50;65.84
50592;BME280;36548;50.506;30.834;2023-03-04T01:44:50;99333.92;;;2.45;65.68
50592;BME280;36548;50.506;30.834;2023-03-04T01:46:06;99325.27;;;2.61;65.92
50592;BME280;36548;50.506;30.834;2023-03-04T01:47:17;99334.66;;;2.49;65.52
50592;BME280;36548;50.506;30.834;2023-03-04T01:48:36;99330.28;;;2.48;65.60
50592;BME280;36548;50.506;30.834;2023-03-04T01:49:50;99333.92;;;2.45;65.55
50592;BME280;36548;50.506;30.834;2023-03-04T01:50:59;99324.91;;;2.49;65.81
50592;BME280;36548;50.506;30.834;2023-03-04T01:52:12;99326.70;;;2.49;65.49
50592;BME280;36548;50.506;30.834;2023-03-04T01:53:26;99333.70;;;2.50;65.52
50592;BME280;36548;50.506;30.834;2023-03-04T01:54:35;99330.28;;;2.48;65.43
50592;BME280;36548;50.506;30.834;2023-03-04T01:55:44;99332.01;;;2.49;65.59
50592;BME280;36548;50.506;30.834;2023-03-04T01:56:54;99326.70;;;2.49;65.61
50592;BME280;36548;50.506;30.834;2023-03-04T01:58:08;99328.41;;;2.50;65.62
50592;BME280;36548;50.506;30.834;2023-03-04T01:59:24;99326.78;;;2.47;65.31
50592;BME280;36548;50.506;30.834;2023-03-04T02:00:33;99328.63;;;2.45;65.42
50592;BME280;36548;50.506;30.834;2023-03-04T02:01:47;99319.76;;;2.46;65.54
50592;BME280;36548;50.506;30.834;2023-03-04T02:03:00;99321.56;;;2.46;65.45
50592;BME280;36548;50.506;30.834;2023-03-04T02:04:11;99323.11;;;2.50;65.62
50592;BME280;36548;50.506;30.834;2023-03-04T02:05:21;99319.76;;;2.46;65.48
50592;BME280;36548;50.506;30.834;2023-03-04T02:06:31;99318.03;;;2.45;65.38
50592;BME280;36548;50.506;30.834;2023-03-04T02:07:40;99314.46;;;2.46;65.62
50592;BME280;36548;50.506;30.834;2023-03-04T02:08:50;99318.77;;;2.49;65.53
50592;BME280;36548;50.506;30.834;2023-03-04T02:10:00;99310.89;;;2.47;65.55
50592;BME280;36548;50.506;30.834;2023-03-04T02:11:09;99313.39;;;2.50;65.66
50592;BME280;36548;50.506;30.834;2023-03-04T02:12:19;99308.86;;;2.52;65.50
50592;BME280;36548;50.506;30.834;2023-03-04T02:13:40;99303.14;;;2.62;65.28
50592;BME280;36548;50.506;30.834;2023-03-04T02:14:50;99303.64;;;2.51;65.21
50592;BME280;36548;50.506;30.834;2023-03-04T02:15:59;99308.09;;;2.50;65.19
50592;BME280;36548;50.506;30.834;2023-03-04T02:17:11;99304.45;;;2.53;65.42
50592;BME280;36548;50.506;30.834;2023-03-04T02:18:22;99314.23;;;2.51;65.17
50592;BME280;36548;50.506;30.834;2023-03-04T02:21:04;99310.31;;;2.41;65.52
50592;BME280;36548;50.506;30.834;2023-03-04T02:22:25;99310.01;;;2.47;65.90
50592;BME280;36548;50.506;30.834;2023-03-04T02:25:02;99307.84;;;2.36;65.19
50592;BME280;36548;50.506;30.834;2023-03-04T02:26:26;99299.91;;;2.36;65.55
50592;BME280;36548;50.506;30.834;2023-03-04T02:27:35;99303.28;;;2.39;65.92
50592;BME280;36548;50.506;30.834;2023-03-04T02:28:47;99307.81;;;2.37;65.49
50592;BME280;36548;50.506;30.834;2023-03-04T02:29:58;99295.67;;;2.32;65.53
50592;BME280;36548;50.506;30.834;2023-03-04T02:31:14;99298.20;;;2.35;66.02
50592;BME280;36548;50.506;30.834;2023-03-04T02:32:20;99298.28;;;2.33;65.86
50592;BME280;36548;50.506;30.834;2023-03-04T02:33:30;99294.61;;;2.36;65.88
50592;BME280;36548;50.506;30.834;2023-03-04T02:34:44;99297.41;;;2.33;65.79
50592;BME280;36548;50.506;30.834;2023-03-04T02:35:54;99295.48;;;2.36;66.06
50592;BME280;36548;50.506;30.834;2023-03-04T02:37:05;99294.56;;;2.37;65.79
50592;BME280;36548;50.506;30.834;2023-03-04T02:38:15;99290.19;;;2.36;65.98
50592;BME280;36548;50.506;30.834;2023-03-04T02:41:00;99282.59;;;2.48;66.40
50592;BME280;36548;50.506;30.834;2023-03-04T02:42:10;99279.79;;;2.32;65.92
50592;BME280;36548;50.506;30.834;2023-03-04T02:43:20;99281.59;;;2.31;66.13
50592;BME280;36548;50.506;30.834;2023-03-04T02:44:31;99286.81;;;2.33;66.02
50592;BME280;36548;50.506;30.834;2023-03-04T02:45:45;99276.30;;;2.31;66.02
50592;BME280;36548;50.506;30.834;2023-03-04T02:46:56;99278.86;;;2.33;66.29
50592;BME280;36548;50.506;30.834;2023-03-04T02:48:07;99278.09;;;2.31;66.02
50592;BME280;36548;50.506;30.834;2023-03-04T02:49:17;99283.31;;;2.32;66.18
50592;BME280;36548;50.506;30.834;2023-03-04T02:50:29;99281.66;;;2.30;66.05
50592;BME280;36548;50.506;30.834;2023-03-04T02:51:40;99276.01;;;2.18;66.11
50592;BME280;36548;50.506;30.834;2023-03-04T02:52:49;99273.28;;;2.20;66.51
50592;BME280;36548;50.506;30.834;2023-03-04T02:53:59;99270.97;;;2.12;66.56
50592;BME280;36548;50.506;30.834;2023-03-04T02:55:09;99276.27;;;2.12;66.79
50592;BME280;36548;50.506;30.834;2023-03-04T02:56:18;99260.38;;;2.12;67.04
50592;BME280;36548;50.506;30.834;2023-03-04T02:57:28;99249.75;;;2.14;67.16
50592;BME280;36548;50.506;30.834;2023-03-04T02:58:38;99248.73;;;2.16;67.33
50592;BME280;36548;50.506;30.834;2023-03-04T02:59:49;99247.58;;;2.22;67.19
50592;BME280;36548;50.506;30.834;2023-03-04T03:01:01;99234.48;;;2.19;66.80
50592;BME280;36548;50.506;30.834;2023-03-04T03:02:10;99238.94;;;2.18;66.90
50592;BME280;36548;50.506;30.834;2023-03-04T03:03:19;99245.08;;;2.19;67.00
50592;BME280;36548;50.506;30.834;2023-03-04T03:04:29;99243.66;;;2.12;67.15
50592;BME280;36548;50.506;30.834;2023-03-04T03:05:39;99239.77;;;2.00;67.40
50592;BME280;36548;50.506;30.834;2023-03-04T03:06:48;99248.36;;;2.05;67.67
50592;BME280;36548;50.506;30.834;2023-03-04T03:07:57;99254.46;;;2.07;67.81
50592;BME280;36548;50.506;30.834;2023-03-04T03:09:07;99244.80;;;2.06;67.79
50592;BME280;36548;50.506;30.834;2023-03-04T03:10:18;99243.88;;;2.07;67.83
50592;BME280;36548;50.506;30.834;2023-03-04T03:11:34;99234.56;;;2.17;67.83
50592;BME280;36548;50.506;30.834;2023-03-04T03:12:44;99244.80;;;2.06;67.69
50592;BME280;36548;50.506;30.834;2023-03-04T03:13:54;99243.98;;;2.04;67.80
50592;BME280;36548;50.506;30.834;2023-03-04T03:15:05;99248.29;;;2.07;68.04
50592;BME280;36548;50.506;30.834;2023-03-04T03:16:20;99246.88;;;2.18;67.88
50592;BME280;36548;50.506;30.834;2023-03-04T03:17:31;99245.86;;;2.02;67.72
50592;BME280;36548;50.506;30.834;2023-03-04T03:18:40;99250.23;;;2.03;68.04
50592;BME280;36548;50.506;30.834;2023-03-04T03:19:50;99251.93;;;2.04;68.18
50592;BME280;36548;50.506;30.834;2023-03-04T03:20:59;99249.24;;;2.06;68.24
50592;BME280;36548;50.506;30.834;2023-03-04T03:22:07;99243.73;;;2.10;68.44
50592;BME280;36548;50.506;30.834;2023-03-04T03:23:22;99236.06;;;2.23;68.25
50592;BME280;36548;50.506;30.834;2023-03-04T03:24:32;99246.23;;;2.13;67.95
50592;BME280;36548;50.506;30.834;2023-03-04T03:25:41;99234.20;;;2.06;67.79
50592;BME280;36548;50.506;30.834;2023-03-04T03:26:50;99232.41;;;2.07;68.12
50592;BME280;36548;50.506;30.834;2023-03-04T03:27:59;99237.51;;;2.11;68.41
50592;BME280;36548;50.506;30.834;2023-03-04T03:29:09;99229.34;;;2.16;68.60
50592;BME280;36548;50.506;30.834;2023-03-04T03:30:20;99224.63;;;2.23;68.94
50592;BME280;36548;50.506;30.834;2023-03-04T03:31:35;99223.91;;;2.38;68.10
50592;BME280;36548;50.506;30.834;2023-03-04T03:32:45;99235.30;;;2.21;67.39
50592;BME280;36548;50.506;30.834;2023-03-04T03:33:53;99235.14;;;2.24;67.79
50592;BME280;36548;50.506;30.834;2023-03-04T03:35:04;99230.70;;;2.25;67.86
50592;BME280;36548;50.506;30.834;2023-03-04T03:36:14;99232.72;;;2.19;67.72
50592;BME280;36548;50.506;30.834;2023-03-04T03:37:25;99230.00;;;2.21;68.01
50592;BME280;36548;50.506;30.834;2023-03-04T03:38:34;99223.63;;;2.25;68.23
50592;BME280;36548;50.506;30.834;2023-03-04T03:39:44;99230.12;;;2.18;67.78
50592;BME280;36548;50.506;30.834;2023-03-04T03:40:53;99225.55;;;2.21;68.21
50592;BME280;36548;50.506;30.834;2023-03-04T03:42:08;99212.88;;;2.28;68.16
50592;BME280;36548;50.506;30.834;2023-03-04T03:43:17;99226.47;;;2.20;68.21
50592;BME280;36548;50.506;30.834;2023-03-04T03:44:27;99221.25;;;2.19;67.94
50592;BME280;36548;50.506;30.834;2023-03-04T03:45:36;99213.23;;;2.20;68.15
50592;BME280;36548;50.506;30.834;2023-03-04T03:46:46;99214.95;;;2.21;68.27
50592;BME280;36548;50.506;30.834;2023-03-04T03:47:55;99220.17;;;2.23;68.12
50592;BME280;36548;50.506;30.834;2023-03-04T03:49:04;99230.70;;;2.25;68.17
50592;BME280;36548;50.506;30.834;2023-03-04T03:50:15;99221.83;;;2.26;68.00
50592;BME280;36548;50.506;30.834;2023-03-04T03:51:25;99205.87;;;2.27;68.07
50592;BME280;36548;50.506;30.834;2023-03-04T03:52:34;99216.19;;;2.14;67.86
50592;BME280;36548;50.506;30.834;2023-03-04T03:53:43;99222.13;;;2.19;68.08
50592;BME280;36548;50.506;30.834;2023-03-04T03:54:51;99214.38;;;2.15;67.99
50592;BME280;36548;50.506;30.834;2023-03-04T03:56:01;99215.19;;;2.17;68.19
50592;BME280;36548;50.506;30.834;2023-03-04T03:57:11;99214.45;;;2.13;68.09
50592;BME280;36548;50.506;30.834;2023-03-04T03:58:20;99216.41;;;2.10;68.31
50592;BME280;36548;50.506;30.834;2023-03-04T03:59:30;99210.23;;;2.09;68.54
50592;BME280;36548;50.506;30.834;2023-03-04T04:00:39;99219.05;;;2.10;68.57
50592;BME280;36548;50.506;30.834;2023-03-04T04:01:48;99204.24;;;2.06;68.45
50592;BME280;36548;50.506;30.834;2023-03-04T04:02:59;99206.66;;;2.10;68.88
50592;BME280;36548;50.506;30.834;2023-03-04T04:04:09;99195.00;;;2.14;68.58
50592;BME280;36548;50.506;30.834;2023-03-04T04:05:18;99206.59;;;2.12;68.61
50592;BME280;36548;50.506;30.834;2023-03-04T04:06:27;99198.50;;;2.15;68.71
50592;BME280;36548;50.506;30.834;2023-03-04T04:07:37;99193.50;;;2.09;68.38
50592;BME280;36548;50.506;30.834;2023-03-04T04:08:47;99196.08;;;2.10;68.53
50592;BME280;36548;50.506;30.834;2023-03-04T04:09:56;99193.27;;;2.13;68.71
50592;BME280;36548;50.506;30.834;2023-03-04T04:11:08;99194.92;;;2.16;68.89
50592;BME280;36548;50.506;30.834;2023-03-04T04:12:19;99195.50;;;2.23;68.95
50592;BME280;36548;50.506;30.834;2023-03-04T04:13:28;99193.05;;;2.18;68.24
50592;BME280;36548;50.506;30.834;2023-03-04T04:14:37;99188.48;;;2.21;68.36
50592;BME280;36548;50.506;30.834;2023-03-04T04:15:47;99196.84;;;2.12;68.24
50592;BME280;36548;50.506;30.834;2023-03-04T04:16:55;99190.48;;;2.16;68.59
50592;BME280;36548;50.506;30.834;2023-03-04T04:18:05;99183.27;;;2.20;68.53
50592;BME280;36548;50.506;30.834;2023-03-04T04:19:16;99183.27;;;2.20;68.31
50592;BME280;36548;50.506;30.834;2023-03-04T04:20:32;99175.02;;;2.26;68.25
50592;BME280;36548;50.506;30.834;2023-03-04T04:21:42;99184.19;;;2.19;68.44
50592;BME280;36548;50.506;30.834;2023-03-04T04:22:51;99182.27;;;2.03;68.49
50592;BME280;36548;50.506;30.834;2023-03-04T04:24:00;99182.03;;;2.08;68.64
50592;BME280;36548;50.506;30.834;2023-03-04T04:25:10;99185.04;;;1.81;69.37
50592;BME280;36548;50.506;30.834;2023-03-04T04:26:20;99180.66;;;1.80;69.87
50592;BME280;36548;50.506;30.834;2023-03-04T04:27:28;99178.90;;;1.81;70.03
50592;BME280;36548;50.506;30.834;2023-03-04T04:28:37;99175.19;;;1.85;69.94
50592;BME280;36548;50.506;30.834;2023-03-04T04:29:46;99169.74;;;1.88;70.19
50592;BME280;36548;50.506;30.834;2023-03-04T04:30:55;99159.87;;;1.73;69.96
50592;BME280;36548;50.506;30.834;2023-03-04T04:32:10;99161.02;;;1.67;70.70
50592;BME280;36548;50.506;30.834;2023-03-04T04:33:21;99167.11;;;1.48;71.07
50592;BME280;36548;50.506;30.834;2023-03-04T04:34:34;99174.67;;;1.77;71.08
50592;BME280;36548;50.506;30.834;2023-03-04T04:35:43;99168.31;;;1.81;70.20
50592;BME280;36548;50.506;30.834;2023-03-04T04:36:52;99160.94;;;2.07;69.88
50592;BME280;36548;50.506;30.834;2023-03-04T04:38:02;99155.71;;;2.05;69.50
50592;BME280;36548;50.506;30.834;2023-03-04T04:39:13;99155.78;;;2.23;69.16
50592;BME280;36548;50.506;30.834;2023-03-04T04:40:28;99151.13;;;2.28;68.87
50592;BME280;36548;50.506;30.834;2023-03-04T04:41:39;99151.48;;;2.20;68.64
50592;BME280;36548;50.506;30.834;2023-03-04T04:42:48;99150.69;;;2.18;69.05
50592;BME280;36548;50.506;30.834;2023-03-04T04:43:57;99145.53;;;2.34;69.33
50592;BME280;36548;50.506;30.834;2023-03-04T04:45:08;99145.69;;;2.31;68.59
50592;BME280;36548;50.506;30.834;2023-03-04T04:46:19;99151.13;;;2.28;68.67
50592;BME280;36548;50.506;30.834;2023-03-04T04:47:29;99139.25;;;2.17;68.67
50592;BME280;36548;50.506;30.834;2023-03-04T04:48:44;99133.59;;;2.25;68.67
50592;BME280;36548;50.506;30.834;2023-03-04T04:49:54;99137.75;;;2.12;68.89
50592;BME280;36548;50.506;30.834;2023-03-04T04:51:04;99145.63;;;2.13;69.36
50592;BME280;36548;50.506;30.834;2023-03-04T04:52:19;99137.41;;;2.19;69.21
50592;BME280;36548;50.506;30.834;2023-03-04T04:53:27;99143.70;;;2.17;69.53
50592;BME280;36548;50.506;30.834;2023-03-04T04:54:36;99133.77;;;1.84;69.66
50592;BME280;36548;50.506;30.834;2023-03-04T04:55:46;99132.20;;;1.99;70.08
50592;BME280;36548;50.506;30.834;2023-03-04T04:56:55;99142.20;;;1.92;69.91
50592;BME280;36548;50.506;30.834;2023-03-04T04:58:06;99137.41;;;2.00;70.10
50592;BME280;36548;50.506;30.834;2023-03-04T04:59:15;99132.05;;;2.02;69.84
50592;BME280;36548;50.506;30.834;2023-03-04T05:00:25;99129.05;;;2.10;69.59
50592;BME280;36548;50.506;30.834;2023-03-04T05:01:35;99118.38;;;2.11;69.23
50592;BME280;36548;50.506;30.834;2023-03-04T05:02:44;99123.21;;;2.20;69.28
50592;BME280;36548;50.506;30.834;2023-03-04T05:03:54;99119.56;;;2.23;68.87
50592;BME280;36548;50.506;30.834;2023-03-04T05:05:06;99118.38;;;2.11;68.91
50592;BME280;36548;50.506;30.834;2023-03-04T05:06:16;99121.88;;;1.93;69.39
50592;BME280;36548;50.506;30.834;2023-03-04T05:07:26;99119.31;;;1.91;70.00
50592;BME280;36548;50.506;30.834;2023-03-04T05:08:35;99124.52;;;2.12;70.10
50592;BME280;36548;50.506;30.834;2023-03-04T05:09:44;99109.06;;;2.02;69.79
50592;BME280;36548;50.506;30.834;2023-03-04T05:10:53;99128.58;;;2.19;69.97
50592;BME280;36548;50.506;30.834;2023-03-04T05:12:03;99129.80;;;2.31;69.32
50592;BME280;36548;50.506;30.834;2023-03-04T05:13:13;99127.14;;;2.31;68.28
50592;BME280;36548;50.506;30.834;2023-03-04T05:14:27;99130.52;;;2.52;68.17
50592;BME280;36548;50.506;30.834;2023-03-04T05:15:37;99123.01;;;2.25;68.36
50592;BME280;36548;50.506;30.834;2023-03-04T05:16:48;99112.85;;;2.16;68.76
50592;BME280;36548;50.506;30.834;2023-03-04T05:18:05;99098.38;;;2.23;69.38
50592;BME280;36548;50.506;30.834;2023-03-04T05:19:16;99110.77;;;2.23;69.11
50592;BME280;36548;50.506;30.834;2023-03-04T05:20:27;99103.77;;;2.02;69.17
50592;BME280;36548;50.506;30.834;2023-03-04T05:21:36;99103.92;;;1.99;69.37
50592;BME280;36548;50.506;30.834;2023-03-04T05:22:44;99098.89;;;2.12;69.56
50592;BME280;36548;50.506;30.834;2023-03-04T05:23:54;99097.81;;;2.16;69.27
50592;BME280;36548;50.506;30.834;2023-03-04T05:25:03;99099.71;;;1.95;69.35
50592;BME280;36548;50.506;30.834;2023-03-04T05:26:14;99091.92;;;1.92;69.64
50592;BME280;36548;50.506;30.834;2023-03-04T05:27:23;99094.27;;;1.98;69.98
50592;BME280;36548;50.506;30.834;2023-03-04T05:28:33;99102.62;;;2.08;69.66
50592;BME280;36548;50.506;30.834;2023-03-04T05:29:44;99097.48;;;2.05;69.36
50592;BME280;36548;50.506;30.834;2023-03-04T05:31:00;99092.83;;;2.10;69.34
50592;BME280;36548;50.506;30.834;2023-03-04T05:32:10;99092.75;;;2.12;69.49
50592;BME280;36548;50.506;30.834;2023-03-04T05:33:19;99084.38;;;2.21;69.53
50592;BME280;36548;50.506;30.834;2023-03-04T05:34:28;99084.98;;;2.26;69.27
50592;BME280;36548;50.506;30.834;2023-03-04T05:35:40;99088.34;;;2.30;68.77
50592;BME280;36548;50.506;30.834;2023-03-04T05:36:49;99081.84;;;2.18;68.67
50592;BME280;36548;50.506;30.834;2023-03-04T05:37:58;99077.51;;;2.17;68.84
50592;BME280;36548;50.506;30.834;2023-03-04T05:39:07;99080.23;;;2.15;69.22
50592;BME280;36548;50.506;30.834;2023-03-04T05:40:22;99077.99;;;2.25;69.47
50592;BME280;36548;50.506;30.834;2023-03-04T05:41:33;99076.98;;;2.28;69.67
50592;BME280;36548;50.506;30.834;2023-03-04T05:42:43;99063.75;;;2.28;68.91
50592;BME280;36548;50.506;30.834;2023-03-04T05:43:52;99062.42;;;2.36;68.95
50592;BME280;36548;50.506;30.834;2023-03-04T05:45:02;99063.98;;;2.41;68.72
50592;BME280;36548;50.506;30.834;2023-03-04T05:46:16;99064.67;;;2.44;68.39
50592;BME280;36548;50.506;30.834;2023-03-04T05:47:25;99069.76;;;2.49;68.24
50592;BME280;36548;50.506;30.834;2023-03-04T05:48:34;99065.78;;;2.58;68.42
50592;BME280;36548;50.506;30.834;2023-03-04T05:49:44;99058.46;;;2.63;68.26
50592;BME280;36548;50.506;30.834;2023-03-04T05:50:55;99066.78;;;2.55;67.41
50592;BME280;36548;50.506;30.834;2023-03-04T05:52:04;99065.84;;;2.38;67.76
50592;BME280;36548;50.506;30.834;2023-03-04T05:53:14;99063.80;;;2.26;68.46
50592;BME280;36548;50.506;30.834;2023-03-04T05:54:23;99076.19;;;2.26;68.51
50592;BME280;36548;50.506;30.834;2023-03-04T05:55:33;99069.36;;;2.39;68.75
50592;BME280;36548;50.506;30.834;2023-03-04T05:56:42;99070.69;;;2.48;68.65
50592;BME280;36548;50.506;30.834;2023-03-04T05:57:51;99069.59;;;2.52;68.21
50592;BME280;36548;50.506;30.834;2023-03-04T05:59:02;99063.83;;;2.44;67.67
50592;BME280;36548;50.506;30.834;2023-03-04T06:00:13;99058.61;;;2.42;68.12
50592;BME280;36548;50.506;30.834;2023-03-04T06:01:22;99061.65;;;2.52;68.30
50592;BME280;36548;50.506;30.834;2023-03-04T06:02:31;99058.67;;;2.58;68.01
50592;BME280;36548;50.506;30.834;2023-03-04T06:03:39;99056.02;;;2.58;67.48
50592;BME280;36548;50.506;30.834;2023-03-04T06:04:50;99057.52;;;2.46;67.25
50592;BME280;36548;50.506;30.834;2023-03-04T06:05:58;99052.98;;;2.48;67.73
50592;BME280;36548;50.506;30.834;2023-03-04T06:07:07;99048.95;;;2.59;67.81
50592;BME280;36548;50.506;30.834;2023-03-04T06:08:16;99052.53;;;2.58;67.10
50592;BME280;36548;50.506;30.834;2023-03-04T06:09:26;99051.98;;;2.51;67.35
50592;BME280;36548;50.506;30.834;2023-03-04T06:10:35;99048.08;;;2.58;67.28
50592;BME280;36548;50.506;30.834;2023-03-04T06:11:44;99053.07;;;2.47;67.10
50592;BME280;36548;50.506;30.834;2023-03-04T06:12:53;99045.22;;;2.63;67.37
50592;BME280;36548;50.506;30.834;2023-03-04T06:14:02;99042.65;;;2.61;66.92
50592;BME280;36548;50.506;30.834;2023-03-04T06:15:12;99039.75;;;2.66;66.80
50592;BME280;36548;50.506;30.834;2023-03-04T06:16:21;99040.03;;;2.95;68.00
50592;BME280;36548;50.506;30.834;2023-03-04T06:17:31;99037.69;;;2.88;65.94